LESO/EAS METAR and TAF weather

Enter ICAO airport designator
Station Type Date Time Source
LESO METAR 2019/02/18 04:30 UTC NOAA

LESO 180430Z VRB01KT CAVOK 13/M01 Q1017


Station Type Date Time Source
LESO Decoded METAR 2019/02/18 04:30 UTC NOAA

San Sebastian / Fuenterrabia, Spain (LESO) 43-21N 001-48W 8M
Feb 17, 2019 - 11:30 PM EST / 2019.02.18 0430 UTC
Wind: Variable at 1 MPH (1 KT):0
Visibility: greater than 7 mile(s):0
Temperature: 55 F (13 C)
Dew Point: 30 F (-1 C)
Relative Humidity: 37%
Pressure (altimeter): 30.03 in. Hg (1017 hPa)
ob: LESO 180430Z VRB01KT CAVOK 13/M01 Q1017
cycle: 4

Station Type Date Time Source
LESO TAF 2019/02/17 18:27 UTC NOAA

TAF LESO 171700Z 1718/1818 18009KT CAVOK TX20/1718Z TN15/1806Z
TEMPO 1721/1812 19015G28KT


Example: see airport list